Time;durP1;ratioP1;P1;durP2;ratioP2;P2;SDS_P1;SDS_P2;PMS_P1;PMS_P2;Temp;Humidity;BMP_temperature;BMP_pressure;BME280_temperature;BME280_humidity;BME280_pressure;Samples;Min_cycle;Max_cycle;Signal;HPM_P1;HPM_P2
2022/03/22 00:00:44;;;;;;;17.90;11.73;;;;;;;5.77;48.17;102609.66;5044378;28;20056;-85
2022/03/22 00:03:11;;;;;;;16.38;11.48;;;;;;;5.74;48.49;102613.88;5009785;28;20061;-85
2022/03/22 00:05:40;;;;;;;16.15;11.35;;;;;;;5.71;48.57;102614.63;5025126;28;20372;-85
2022/03/22 00:08:07;;;;;;;19.52;12.27;;;;;;;5.66;48.62;102608.34;5030750;28;20053;-84
2022/03/22 00:10:34;;;;;;;20.52;11.75;;;;;;;5.64;48.67;102612.56;5009443;28;20496;-85
2022/03/22 00:13:02;;;;;;;20.73;13.38;;;;;;;5.63;49.26;102610.78;5021455;28;20054;-84
2022/03/22 00:15:29;;;;;;;20.98;12.93;;;;;;;5.64;49.26;102607.38;5011750;28;20053;-84
2022/03/22 00:17:55;;;;;;;20.65;12.13;;;;;;;5.63;49.40;102609.09;5041253;28;20085;-85
2022/03/22 00:20:23;;;;;;;15.38;11.27;;;;;;;5.62;49.35;102615.09;5047535;28;20049;-84
2022/03/22 00:22:51;;;;;;;21.20;12.57;;;;;;;5.61;49.68;102612.44;5030104;28;20044;-85
2022/03/22 00:25:17;;;;;;;20.23;13.95;;;;;;;5.61;49.83;102615.91;5016096;28;20117;-85
2022/03/22 00:27:55;;;;;;;16.75;13.45;;;;;;;5.58;49.67;102613.19;5031092;28;20056;-84
2022/03/22 00:30:33;;;;;;;19.00;12.65;;;;;;;5.58;50.01;102609.69;5031708;28;20045;-85
2022/03/22 00:33:04;;;;;;;18.00;11.68;;;;;;;5.57;49.57;102610.53;5033345;28;20053;-85
2022/03/22 00:35:36;;;;;;;18.33;12.57;;;;;;;5.57;49.88;102606.22;5043280;28;20041;-85
2022/03/22 00:38:13;;;;;;;19.08;12.88;;;;;;;5.58;49.88;102617.50;5030214;28;20099;-85
2022/03/22 00:40:41;;;;;;;16.92;10.98;;;;;;;5.57;49.63;102608.81;5032179;28;20601;-85
2022/03/22 00:43:08;;;;;;;20.58;12.02;;;;;;;5.57;49.80;102611.41;5012633;28;20396;-85
2022/03/22 00:45:36;;;;;;;17.10;11.85;;;;;;;5.59;49.94;102606.28;5015074;28;20038;-84
2022/03/22 00:48:07;;;;;;;16.42;11.07;;;;;;;5.57;49.58;102611.41;5013916;28;20053;-85
2022/03/22 00:50:37;;;;;;;21.58;12.25;;;;;;;5.58;49.80;102613.19;5026313;28;20148;-84
2022/03/22 00:53:07;;;;;;;16.23;11.38;;;;;;;5.56;49.39;102603.56;5044011;28;20049;-85
2022/03/22 00:55:34;;;;;;;16.33;12.05;;;;;;;5.55;49.67;102605.25;5030916;28;20041;-85
2022/03/22 00:58:02;;;;;;;20.48;13.55;;;;;;;5.54;49.67;102602.59;5042542;28;20041;-85
2022/03/22 01:00:31;;;;;;;20.08;12.77;;;;;;;5.52;50.04;102605.13;5049866;28;20049;-85
2022/03/22 01:03:01;;;;;;;17.40;12.25;;;;;;;5.50;49.85;102598.09;5044661;28;20045;-85
2022/03/22 01:05:30;;;;;;;17.60;12.10;;;;;;;5.49;49.91;102598.91;5026772;28;20061;-85
2022/03/22 01:08:01;;;;;;;18.15;12.15;;;;;;;5.46;49.94;102604.88;5045356;28;20119;-85
2022/03/22 01:10:31;;;;;;;16.45;11.80;;;;;;;5.45;49.89;102605.72;5028420;28;20041;-85
2022/03/22 01:12:58;;;;;;;19.20;12.98;;;;;;;5.44;50.49;102604.81;5013743;28;20045;-85
2022/03/22 01:15:32;;;;;;;20.27;12.52;;;;;;;5.44;50.65;102603.94;5032977;28;20084;-85
2022/03/22 01:18:05;;;;;;;25.40;13.00;;;;;;;5.39;50.30;102598.53;5008636;28;20160;-84
2022/03/22 01:20:33;;;;;;;21.50;12.80;;;;;;;5.38;50.84;102601.06;5033088;28;20124;-84
2022/03/22 01:23:02;;;;;;;20.13;12.75;;;;;;;5.37;50.61;102604.47;5028169;28;20820;-83
2022/03/22 01:25:30;;;;;;;15.05;11.15;;;;;;;5.33;50.64;102600.84;5054774;28;20100;-84
2022/03/22 01:27:58;;;;;;;18.20;12.07;;;;;;;5.33;50.85;102605.16;5036260;28;20046;-84
2022/03/22 01:30:26;;;;;;;16.77;10.85;;;;;;;5.30;51.09;102595.53;5035931;28;20053;-84
2022/03/22 01:32:55;;;;;;;19.08;13.00;;;;;;;5.29;51.13;102601.53;5033445;28;20599;-85
2022/03/22 01:35:26;;;;;;;18.42;11.43;;;;;;;5.25;50.82;102600.53;5019745;28;20051;-84
2022/03/22 01:37:56;;;;;;;18.27;12.65;;;;;;;5.25;51.05;102600.53;5016222;28;20049;-84
2022/03/22 01:40:30;;;;;;;19.48;11.93;;;;;;;5.27;50.88;102596.28;5031089;28;20041;-84
2022/03/22 01:42:57;;;;;;;;;;;;;;;5.28;51.64;102599.78;5020088;28;20107;-84
2022/03/22 01:45:24;;;;;;;21.15;11.50;;;;;;;5.28;51.14;102597.19;5035687;28;20271;-85
2022/03/22 01:47:52;;;;;;;16.08;10.68;;;;;;;5.25;51.03;102591.84;5037981;28;20064;-84
2022/03/22 01:50:22;;;;;;;18.73;12.80;;;;;;;5.21;51.07;102589.94;5039986;28;20053;-85
2022/03/22 01:52:49;;;;;;;20.58;12.82;;;;;;;5.16;51.60;102591.44;5030794;28;20045;-85
2022/03/22 01:55:19;;;;;;;17.70;11.93;;;;;;;5.10;51.22;102586.84;5028080;28;20053;-85
2022/03/22 01:57:47;;;;;;;22.63;11.95;;;;;;;5.07;51.75;102586.69;5054430;28;20044;-83
2022/03/22 02:00:21;;;;;;;20.17;12.35;;;;;;;5.05;51.75;102584.03;5006060;28;20050;-85
2022/03/22 02:05:52;;;;;;;16.13;11.27;;;;;;;4.98;51.71;102576.81;5034083;28;20082;-84
2022/03/22 02:08:21;;;;;;;19.08;12.13;;;;;;;4.98;52.13;102576.81;5032615;28;20125;-84
2022/03/22 02:10:48;;;;;;;19.20;13.20;;;;;;;4.99;52.01;102572.50;5016501;28;20041;-83
2022/03/22 02:13:15;;;;;;;22.15;14.05;;;;;;;4.97;51.64;102572.44;5016323;28;20052;-84
2022/03/22 02:15:41;;;;;;;19.65;12.43;;;;;;;4.99;52.16;102570.78;5031703;28;20053;-85
2022/03/22 02:18:08;;;;;;;16.67;11.75;;;;;;;4.99;52.10;102578.56;5025893;28;20052;-84
2022/03/22 02:20:34;;;;;;;19.10;12.65;;;;;;;4.95;51.73;102572.38;5015427;28;20049;-84
2022/03/22 02:23:35;;;;;;;17.40;11.60;;;;;;;4.94;52.02;102569.69;5022164;28;20499;-85
2022/03/22 02:26:02;;;;;;;17.55;11.68;;;;;;;4.92;52.29;102567.03;5029723;28;20037;-85
2022/03/22 02:28:29;;;;;;;21.73;12.32;;;;;;;4.93;52.21;102565.34;5026619;28;20041;-84
2022/03/22 02:30:56;;;;;;;18.98;12.75;;;;;;;4.91;52.02;102562.66;5025813;28;20044;-85
2022/03/22 02:33:22;;;;;;;19.45;11.50;;;;;;;4.92;52.41;102556.66;5029141;28;20048;-85
2022/03/22 02:35:49;;;;;;;17.92;12.20;;;;;;;4.95;52.65;102564.59;5047477;28;20402;-84
2022/03/22 02:38:15;;;;;;;21.77;12.40;;;;;;;4.95;51.93;102556.81;5045766;28;20122;-85
2022/03/22 02:40:42;;;;;;;18.08;13.45;;;;;;;4.95;51.96;102555.91;5014129;28;20053;-84
2022/03/22 02:43:09;;;;;;;21.42;12.98;;;;;;;4.95;51.77;102562.00;5015920;28;20056;-84
2022/03/22 02:45:36;;;;;;;22.10;12.23;;;;;;;4.95;51.96;102561.09;5016272;28;20041;-85
2022/03/22 02:48:03;;;;;;;19.65;12.52;;;;;;;4.95;51.51;102562.00;5014860;28;20080;-84
2022/03/22 02:50:29;;;;;;;23.38;13.35;;;;;;;4.94;51.64;102551.53;5020057;28;20045;-84
2022/03/22 02:52:56;;;;;;;17.52;12.10;;;;;;;4.95;51.86;102561.09;5016678;28;20068;-85
2022/03/22 02:55:23;;;;;;;19.75;12.68;;;;;;;4.92;51.69;102559.25;5031216;28;20053;-85
2022/03/22 02:57:50;;;;;;;16.85;12.30;;;;;;;4.88;51.79;102559.94;5016775;28;20438;-84
2022/03/22 03:00:17;;;;;;;18.65;13.68;;;;;;;4.85;52.10;102557.22;5049396;28;20071;-84
2022/03/22 03:02:52;;;;;;;21.02;12.77;;;;;;;4.80;52.20;102562.16;5031865;28;20096;-82
2022/03/22 03:05:20;;;;;;;16.65;11.52;;;;;;;4.74;52.33;102567.06;5013994;28;20053;-83
2022/03/22 03:07:48;;;;;;;19.30;12.27;;;;;;;4.73;52.41;102565.31;5017455;28;20115;-84
2022/03/22 03:10:14;;;;;;;18.02;11.73;;;;;;;4.69;52.35;102562.50;5005489;28;20456;-84
2022/03/22 03:12:41;;;;;;;21.80;13.07;;;;;;;4.67;52.79;102564.13;5032833;28;20057;-84
2022/03/22 03:15:10;;;;;;;19.23;12.07;;;;;;;4.62;52.66;102564.81;5026659;28;20052;-85
2022/03/22 03:17:38;;;;;;;24.98;13.15;;;;;;;4.61;53.04;102563.03;5018590;28;20036;-84
2022/03/22 03:20:07;;;;;;;25.70;13.55;;;;;;;4.61;52.76;102563.03;5016586;28;20060;-84
2022/03/22 03:22:35;;;;;;;22.02;12.73;;;;;;;4.59;52.88;102556.91;5029960;28;20124;-85
2022/03/22 03:25:01;;;;;;;22.30;13.23;;;;;;;4.56;53.18;102564.53;5032333;28;20052;-85
2022/03/22 03:27:28;;;;;;;20.63;12.55;;;;;;;4.54;52.73;102570.47;5013763;28;20080;-84
2022/03/22 03:29:54;;;;;;;19.75;12.40;;;;;;;4.53;53.04;102563.50;5042701;28;20124;-85
2022/03/22 03:32:21;;;;;;;17.50;11.57;;;;;;;4.49;52.95;102567.66;5030886;28;20047;-84
2022/03/22 03:34:48;;;;;;;17.63;11.75;;;;;;;4.46;53.10;102573.59;5046913;28;20048;-85
2022/03/22 03:37:14;;;;;;;22.92;12.50;;;;;;;4.43;53.24;102575.13;5014027;28;20044;-84
2022/03/22 03:39:41;;;;;;;20.15;12.85;;;;;;;4.42;53.13;102574.25;5047474;28;20040;-84
2022/03/22 03:42:07;;;;;;;19.17;11.82;;;;;;;4.40;53.56;102573.28;5013274;28;20057;-84
2022/03/22 03:47:22;;;;;;;16.35;12.30;;;;;;;4.39;53.11;102573.22;5048046;28;20044;-84
2022/03/22 03:50:00;;;;;;;19.50;11.15;;;;;;;4.35;53.23;102571.31;4999043;28;20068;-84
2022/03/22 03:52:29;;;;;;;15.63;11.48;;;;;;;4.33;53.63;102567.72;5043962;28;20103;-84
2022/03/22 03:54:57;;;;;;;18.08;12.27;;;;;;;4.33;53.72;102578.09;5027690;28;20045;-84
2022/03/22 03:57:25;;;;;;;17.15;11.43;;;;;;;4.32;54.00;102574.63;5015260;28;20041;-85
2022/03/22 03:59:54;;;;;;;22.08;11.85;;;;;;;4.32;53.72;102574.63;5049445;28;20469;-84
2022/03/22 04:02:22;;;;;;;17.23;12.00;;;;;;;4.32;53.28;102579.81;5046331;28;20041;-85
2022/03/22 04:04:51;;;;;;;19.98;12.77;;;;;;;4.29;53.80;102580.56;5027364;28;20049;-84
2022/03/22 04:07:25;;;;;;;20.83;13.60;;;;;;;4.25;53.31;102576.06;5030745;28;20095;-84
2022/03/22 04:09:54;;;;;;;17.38;11.73;;;;;;;4.20;53.47;102577.53;5054673;28;20060;-84
2022/03/22 04:12:22;;;;;;;20.42;11.32;;;;;;;4.19;54.07;102580.94;5037279;28;20143;-84
2022/03/22 04:14:50;;;;;;;17.50;12.02;;;;;;;4.19;54.27;102582.66;5012338;28;20064;-84
2022/03/22 04:17:17;;;;;;;16.85;11.95;;;;;;;4.22;53.68;102583.66;5034378;28;20107;-85
2022/03/22 04:19:45;;;;;;;18.13;11.82;;;;;;;4.22;53.99;102581.06;5013517;28;20135;-84
2022/03/22 04:22:11;;;;;;;16.17;11.20;;;;;;;4.24;53.78;102589.81;5034551;28;20511;-84
2022/03/22 04:24:38;;;;;;;16.33;11.02;;;;;;;4.23;53.96;102587.16;5033083;28;20057;-84
2022/03/22 04:32:44;;;;;;;14.85;10.70;;;;;;;4.12;54.27;102591.84;5018467;28;20029;-85
2022/03/22 04:35:18;;;;;;;17.70;12.18;;;;;;;4.11;54.36;102595.22;5035914;28;20057;-84
2022/03/22 04:37:47;;;;;;;;;;;;;;;4.10;54.78;102594.31;5032808;28;20048;-85
2022/03/22 04:40:14;;;;;;;16.98;11.18;;;;;;;4.09;54.62;102591.66;5038800;28;19920;-84
2022/03/22 04:42:42;;;;;;;19.90;12.02;;;;;;;4.07;54.65;102599.38;5020366;28;20049;-85
2022/03/22 04:45:10;;;;;;;17.02;11.30;;;;;;;4.05;54.53;102598.41;5048558;28;20037;-84
2022/03/22 04:47:37;;;;;;;19.15;11.45;;;;;;;4.02;54.73;102602.56;5033081;28;20037;-84
2022/03/22 04:50:06;;;;;;;22.95;11.70;;;;;;;4.02;54.69;102605.16;5033945;28;20045;-84
2022/03/22 04:58:02;;;;;;;20.33;12.85;;;;;;;4.00;55.14;102607.63;5015384;28;20433;-85
2022/03/22 05:00:29;;;;;;;28.25;12.60;;;;;;;3.98;54.73;102602.38;5017781;28;20045;-85
2022/03/22 05:02:55;;;;;;;18.73;11.25;;;;;;;3.96;55.32;102603.13;5032914;28;20061;-84
2022/03/22 05:08:22;;;;;;;19.83;12.38;;;;;;;3.94;55.09;102597.88;5145498;27;20434;-85
2022/03/22 05:10:48;;;;;;;26.30;14.38;;;;;;;3.94;55.49;102603.06;5128478;27;20039;-84
2022/03/22 05:13:15;;;;;;;21.08;12.10;;;;;;;3.93;55.22;102610.75;5124205;27;20059;-84
2022/03/22 05:15:41;;;;;;;21.05;12.23;;;;;;;3.91;55.31;102614.97;5123579;27;20048;-85
2022/03/22 05:18:08;;;;;;;18.58;11.88;;;;;;;3.89;55.79;102622.66;5107432;27;20058;-85
2022/03/22 05:20:35;;;;;;;16.88;12.40;;;;;;;3.90;55.92;102624.44;5118999;27;20082;-85
2022/03/22 05:23:01;;;;;;;21.75;12.98;;;;;;;3.88;55.80;102627.78;5138706;27;20055;-85
2022/03/22 05:25:30;;;;;;;17.75;11.80;;;;;;;3.84;56.18;102626.72;5109604;27;20043;-84
2022/03/22 05:28:02;;;;;;;16.38;11.27;;;;;;;3.82;56.46;102625.78;5123039;27;20501;-84
2022/03/22 05:30:29;;;;;;;17.38;11.88;;;;;;;3.80;56.37;102625.66;5110282;27;20089;-85
2022/03/22 05:32:56;;;;;;;17.95;12.15;;;;;;;3.77;56.17;102617.75;5133481;27;20102;-85
2022/03/22 05:35:24;;;;;;;18.35;12.82;;;;;;;3.78;56.44;102627.31;5147581;27;20044;-83
2022/03/22 05:37:52;;;;;;;19.73;12.48;;;;;;;3.77;56.47;102627.25;5128165;27;20039;-85
2022/03/22 05:40:19;;;;;;;19.48;12.15;;;;;;;3.74;56.73;102627.06;5134581;27;20043;-85
2022/03/22 05:42:46;;;;;;;19.48;12.98;;;;;;;3.73;56.79;102621.00;5109747;27;20121;-85
2022/03/22 05:45:13;;;;;;;20.17;12.45;;;;;;;3.71;56.63;102626.91;5121467;27;20134;-85
2022/03/22 05:47:49;;;;;;;19.23;12.15;;;;;;;3.72;57.35;102629.59;5144493;27;20036;-85
2022/03/22 05:50:15;;;;;;;23.27;12.90;;;;;;;3.71;57.40;102638.16;5148101;27;20126;-85
2022/03/22 05:52:44;;;;;;;16.23;11.07;;;;;;;3.71;57.16;102634.69;5135579;27;20058;-85
2022/03/22 05:55:10;;;;;;;16.45;11.85;;;;;;;3.73;57.14;102630.47;5131515;27;20050;-85
2022/03/22 05:57:37;;;;;;;21.20;12.52;;;;;;;3.74;56.96;102630.56;5103748;28;20062;-85
2022/03/22 06:00:06;;;;;;;18.20;12.70;;;;;;;3.76;57.04;102635.81;5117296;27;20063;-84
2022/03/22 06:02:33;;;;;;;18.27;14.07;;;;;;;3.79;57.34;102633.38;5118411;27;20066;-85
2022/03/22 06:04:59;;;;;;;15.63;11.07;;;;;;;3.83;56.55;102637.00;5106337;27;20058;-85
2022/03/22 06:07:26;;;;;;;19.75;11.93;;;;;;;3.86;56.58;102638.06;5053525;27;20504;-85
2022/03/22 06:09:52;;;;;;;21.05;11.82;;;;;;;3.89;56.77;102638.22;5047133;27;20034;-85
2022/03/22 06:12:19;;;;;;;19.85;12.50;;;;;;;3.90;56.27;102629.63;5001778;28;20442;-85
2022/03/22 06:14:46;;;;;;;18.33;11.85;;;;;;;3.95;56.05;102627.25;5047239;27;20050;-85
2022/03/22 06:17:12;;;;;;;18.65;11.63;;;;;;;4.00;56.46;102632.69;5021610;27;20095;-84
2022/03/22 06:19:39;;;;;;;20.45;12.85;;;;;;;4.09;55.81;102638.31;4991325;28;20103;-85
2022/03/22 06:22:05;;;;;;;15.95;11.77;;;;;;;4.20;55.81;102637.16;5004917;28;20077;-85
2022/03/22 06:24:32;;;;;;;17.63;12.05;;;;;;;4.34;55.29;102639.53;5019151;28;20078;-85
2022/03/22 06:26:58;;;;;;;18.60;13.40;;;;;;;4.48;55.06;102646.25;5035923;27;20060;-83
2022/03/22 06:29:25;;;;;;;16.08;12.20;;;;;;;4.62;54.55;102640.03;5017981;28;20054;-83
2022/03/22 06:31:52;;;;;;;19.52;12.50;;;;;;;4.80;54.01;102647.81;5019956;28;20067;-83
2022/03/22 06:34:25;;;;;;;20.83;13.40;;;;;;;4.97;53.18;102642.53;5030912;28;20091;-83
2022/03/22 06:36:58;;;;;;;18.23;11.95;;;;;;;5.14;53.02;102646.75;5018445;28;20042;-83
2022/03/22 06:39:25;;;;;;;18.00;12.30;;;;;;;5.30;52.69;102645.75;5042509;28;20051;-83
2022/03/22 06:41:51;;;;;;;18.08;12.40;;;;;;;5.47;52.21;102643.00;5017725;28;20066;-83
2022/03/22 06:44:18;;;;;;;17.05;12.60;;;;;;;5.63;51.40;102647.16;5036279;28;20047;-83
2022/03/22 06:46:45;;;;;;;20.90;14.68;;;;;;;5.84;51.17;102641.13;5026780;28;20049;-83
2022/03/22 06:49:12;;;;;;;18.55;12.07;;;;;;;6.03;50.77;102648.91;5018960;28;20093;-84
2022/03/22 06:51:42;;;;;;;20.25;11.68;;;;;;;6.22;50.17;102645.38;5039287;28;20067;-84
2022/03/22 06:54:09;;;;;;;17.95;12.98;;;;;;;6.44;49.68;102647.13;5021054;28;20430;-83
2022/03/22 06:56:35;;;;;;;21.38;12.77;;;;;;;6.67;49.37;102646.25;5012622;28;20042;-81
2022/03/22 06:59:02;;;;;;;20.30;12.77;;;;;;;6.92;48.66;102648.09;5023554;28;20041;-85
2022/03/22 07:01:28;;;;;;;18.67;12.30;;;;;;;7.19;47.83;102650.84;5018044;28;20504;-83
2022/03/22 07:03:55;;;;;;;19.35;11.73;;;;;;;7.43;47.21;102642.16;5013791;28;20049;-83
2022/03/22 07:06:31;;;;;;;17.48;12.07;;;;;;;7.72;46.70;102642.31;5029144;27;20443;-83
2022/03/22 07:09:07;;;;;;;19.25;13.73;;;;;;;8.09;46.30;102638.34;5050604;27;20041;-85
2022/03/22 07:11:52;;;;;;;14.43;11.07;;;;;;;8.35;45.21;102635.72;5034853;28;20038;-84
2022/03/22 07:14:29;;;;;;;21.60;12.73;;;;;;;8.65;44.66;102634.94;5008765;28;20069;-83
2022/03/22 07:17:08;;;;;;;15.77;11.60;;;;;;;8.96;43.80;102636.75;5040294;28;20038;-84
2022/03/22 07:19:47;;;;;;;17.38;11.82;;;;;;;9.34;43.55;102633.47;5028488;28;20038;-82
2022/03/22 07:24:58;;;;;;;20.25;13.07;;;;;;;10.03;41.82;102643.16;5029510;28;20049;-84
2022/03/22 07:27:39;;;;;;;21.83;13.73;;;;;;;10.35;41.20;102637.88;5029120;28;20093;-82
2022/03/22 07:30:12;;;;;;;13.82;10.88;;;;;;;10.67;40.89;102636.84;5018566;28;20054;-85
2022/03/22 07:32:45;;;;;;;17.05;12.25;;;;;;;10.98;40.19;102648.00;5041286;28;20046;-83
2022/03/22 07:35:18;;;;;;;21.65;12.43;;;;;;;11.30;39.35;102646.03;5030333;28;20062;-84
2022/03/22 07:37:55;;;;;;;19.08;12.70;;;;;;;11.48;38.25;102645.50;5043784;27;20580;-83
2022/03/22 07:40:36;;;;;;;16.33;12.23;;;;;;;11.61;38.51;102644.00;5008238;28;20053;-83
2022/03/22 07:43:10;;;;;;;19.67;13.43;;;;;;;11.75;38.30;102646.91;5021019;28;20046;-82
2022/03/22 07:45:52;;;;;;;19.63;12.88;;;;;;;12.11;38.03;102640.56;5026509;28;20044;-84
2022/03/22 07:48:25;;;;;;;23.65;14.50;;;;;;;12.51;37.23;102646.41;5003838;28;20054;-83
2022/03/22 07:53:37;;;;;;;18.13;13.10;;;;;;;13.31;35.96;102650.97;5028606;28;20363;-85
2022/03/22 07:56:10;;;;;;;18.30;13.02;;;;;;;13.72;35.41;102645.31;5045279;28;20077;-85
2022/03/22 07:58:37;;;;;;;22.20;13.70;;;;;;;14.12;34.59;102647.44;5015768;28;20073;-84
2022/03/22 08:01:05;;;;;;;19.70;13.98;;;;;;;14.36;33.57;102647.63;5035907;28;20258;-83
2022/03/22 08:03:32;;;;;;;21.05;13.25;;;;;;;14.49;33.49;102653.84;5026249;28;20046;-85
2022/03/22 08:06:00;;;;;;;19.98;12.95;;;;;;;14.69;33.54;102653.13;5024416;27;20120;-84
2022/03/22 08:08:27;;;;;;;17.75;12.98;;;;;;;14.85;32.80;102654.13;5105413;27;20086;-83
2022/03/22 08:10:54;;;;;;;16.15;12.68;;;;;;;15.11;32.55;102658.63;5038418;28;20041;-85
2022/03/22 08:13:23;;;;;;;18.08;15.07;;;;;;;15.40;32.38;102645.53;5110760;27;20553;-85
2022/03/22 08:15:51;;;;;;;15.48;12.52;;;;;;;15.54;31.74;102649.09;5069640;28;20045;-85
2022/03/22 08:18:18;;;;;;;17.60;13.45;;;;;;;15.69;31.72;102648.22;5104564;27;20046;-83
2022/03/22 08:20:45;;;;;;;17.17;12.43;;;;;;;15.91;31.46;102653.59;5085689;28;20045;-83
2022/03/22 08:23:12;;;;;;;18.33;12.38;;;;;;;16.26;31.00;102643.91;5101175;27;20049;-83
2022/03/22 08:25:43;;;;;;;14.80;11.93;;;;;;;16.61;30.59;102649.13;5102789;27;20102;-85
2022/03/22 08:28:14;;;;;;;18.42;12.88;;;;;;;17.01;30.27;102653.44;5095914;27;20073;-83
2022/03/22 08:30:44;;;;;;;14.93;11.57;;;;;;;17.37;29.15;102651.53;5095177;27;20106;-83
2022/03/22 08:33:12;;;;;;;15.25;12.43;;;;;;;17.76;29.45;102646.88;5091894;27;20106;-84
2022/03/22 08:35:51;;;;;;;16.23;12.48;;;;;;;18.02;28.99;102652.00;5081255;28;20070;-83
2022/03/22 08:38:20;;;;;;;17.88;13.52;;;;;;;18.24;29.08;102656.22;5073887;28;20057;-85
2022/03/22 08:40:48;;;;;;;16.50;12.57;;;;;;;18.42;28.93;102644.56;5013717;28;20066;-84
2022/03/22 08:43:15;;;;;;;17.05;13.75;;;;;;;18.56;28.45;102644.44;5127190;27;20042;-84
2022/03/22 08:45:42;;;;;;;17.60;12.68;;;;;;;18.80;28.26;102641.50;5075714;28;20046;-84
2022/03/22 08:48:12;;;;;;;16.85;12.75;;;;;;;18.80;28.26;102643.28;5116655;27;20048;-84
2022/03/22 08:50:42;;;;;;;18.52;13.57;;;;;;;19.07;28.13;102635.91;5101044;27;20041;-86
2022/03/22 08:53:09;;;;;;;14.27;12.88;;;;;;;19.51;27.34;102627.31;5068506;28;20157;-84
2022/03/22 08:55:36;;;;;;;14.55;13.00;;;;;;;20.00;27.07;102631.00;5089556;28;20042;-84
2022/03/22 08:58:06;;;;;;;14.80;12.55;;;;;;;20.50;26.29;102635.44;5108266;27;20351;-83
2022/03/22 09:00:35;;;;;;;14.82;12.65;;;;;;;20.83;26.12;102641.03;5097460;28;20457;-84
2022/03/22 09:03:06;;;;;;;15.68;13.52;;;;;;;21.13;25.67;102634.19;5083589;28;20049;-83
2022/03/22 09:08:17;;;;;;;14.43;12.68;;;;;;;21.71;24.73;102638.25;5012956;28;20424;-84
2022/03/22 09:10:46;;;;;;;14.52;12.65;;;;;;;21.93;24.05;102627.94;5005094;28;20096;-83
2022/03/22 09:13:13;;;;;;;13.85;12.45;;;;;;;22.11;23.77;102640.78;5004120;28;20057;-84
2022/03/22 09:15:40;;;;;;;14.73;13.23;;;;;;;22.12;23.42;102633.66;5032140;28;20043;-84
2022/03/22 09:18:13;;;;;;;15.35;13.75;;;;;;;21.79;23.61;102633.59;5013832;28;20498;-84
2022/03/22 09:20:41;;;;;;;16.20;13.05;;;;;;;21.64;23.13;102638.41;5036838;28;20054;-83
2022/03/22 09:23:09;;;;;;;17.42;12.25;;;;;;;21.78;23.51;102634.50;5043916;28;20117;-84
2022/03/22 09:25:37;;;;;;;16.35;13.13;;;;;;;21.95;23.26;102634.97;5023257;28;20022;-85
2022/03/22 09:28:05;;;;;;;13.63;12.18;;;;;;;21.44;23.38;102624.63;5015869;28;20038;-84
2022/03/22 09:30:33;;;;;;;14.68;13.10;;;;;;;20.31;24.26;102625.16;5002610;28;20038;-83
2022/03/22 09:33:01;;;;;;;15.55;12.98;;;;;;;19.28;25.23;102635.63;5011285;28;20046;-84
2022/03/22 09:35:31;;;;;;;17.85;13.88;;;;;;;18.33;26.14;102633.16;5028035;28;20154;-84
2022/03/22 09:37:59;;;;;;;14.40;12.93;;;;;;;17.60;26.88;102637.25;5034650;28;20041;-84
2022/03/22 09:40:27;;;;;;;16.80;14.32;;;;;;;17.02;27.48;102639.34;5022934;28;20032;-83
2022/03/22 09:42:56;;;;;;;17.75;12.43;;;;;;;16.59;27.91;102629.75;5017055;28;20042;-84
2022/03/22 09:45:32;;;;;;;14.25;12.75;;;;;;;16.53;27.78;102633.28;5006196;28;20046;-84
2022/03/22 09:47:59;;;;;;;18.45;13.68;;;;;;;17.29;27.22;102630.38;5013563;28;20069;-86
2022/03/22 09:53:10;;;;;;;15.18;13.45;;;;;;;20.02;24.21;102617.69;4990589;28;20061;-84
2022/03/22 09:55:37;;;;;;;15.52;13.10;;;;;;;21.26;23.11;102621.50;5032579;27;20072;-84
2022/03/22 09:58:05;;;;;;;18.33;12.80;;;;;;;22.49;22.17;102618.47;5033196;28;20078;-84
2022/03/22 10:00:32;;;;;;;15.20;13.13;;;;;;;23.59;21.03;102611.59;5019553;28;20038;-84
2022/03/22 10:03:00;;;;;;;14.38;12.88;;;;;;;24.45;20.30;102612.28;5016816;28;20053;-83
2022/03/22 10:05:28;;;;;;;14.00;12.63;;;;;;;25.10;20.12;102609.88;5018529;28;20048;-84
2022/03/22 10:08:09;;;;;;;17.35;13.98;;;;;;;25.58;19.46;102608.00;5101598;27;20066;-84
2022/03/22 10:10:36;;;;;;;16.48;13.82;;;;;;;26.11;19.42;102614.69;5128346;27;20441;-83
2022/03/22 10:13:05;;;;;;;16.73;13.70;;;;;;;26.29;18.83;102613.03;5113426;28;20036;-83
2022/03/22 10:15:37;;;;;;;15.70;13.68;;;;;;;26.42;17.88;102611.53;5109539;28;20524;-83
2022/03/22 10:18:08;;;;;;;14.75;13.25;;;;;;;26.62;18.73;102615.16;5094056;28;20074;-84
2022/03/22 10:20:38;;;;;;;14.38;12.95;;;;;;;27.05;18.07;102606.88;5123066;27;20042;-84
2022/03/22 10:23:10;;;;;;;14.73;13.23;;;;;;;27.50;17.95;102607.44;5109127;28;20048;-83
2022/03/22 10:25:45;;;;;;;15.10;13.60;;;;;;;27.98;17.27;102605.91;5111945;28;20479;-84
2022/03/22 10:28:13;;;;;;;17.50;12.95;;;;;;;28.12;16.98;102602.53;5111633;28;20039;-84
2022/03/22 10:30:40;;;;;;;15.13;13.63;;;;;;;28.06;17.16;102602.84;5111406;28;20043;-84
2022/03/22 10:33:07;;;;;;;14.80;13.15;;;;;;;28.19;17.08;102603.91;5109216;27;20305;-83
2022/03/22 10:35:36;;;;;;;15.15;13.70;;;;;;;28.48;16.12;102603.31;5103055;27;20139;-84
2022/03/22 10:38:10;;;;;;;15.02;13.70;;;;;;;28.27;16.23;102605.34;5131341;27;20052;-84
2022/03/22 10:40:40;;;;;;;16.00;14.40;;;;;;;28.19;16.59;102592.28;5143885;27;20044;-85
2022/03/22 10:43:09;;;;;;;15.07;13.50;;;;;;;28.31;16.63;102594.31;5128968;27;20055;-84
2022/03/22 10:45:52;;;;;;;15.70;14.13;;;;;;;28.53;15.62;102593.16;5096089;28;20066;-86
2022/03/22 10:48:22;;;;;;;;;;;;;;;28.86;15.49;102592.28;5097674;28;20581;-85
2022/03/22 10:50:50;;;;;;;15.15;13.65;;;;;;;29.56;15.66;102588.34;5114316;27;20815;-84
2022/03/22 10:53:20;;;;;;;16.58;14.75;;;;;;;29.97;15.61;102591.28;5109366;28;20142;-85
2022/03/22 10:55:47;;;;;;;15.27;12.65;;;;;;;30.38;14.96;102591.47;5113121;27;20043;-84
2022/03/22 10:58:18;;;;;;;17.63;15.20;;;;;;;29.86;14.51;102583.78;5106147;28;20565;-84
2022/03/22 11:00:49;;;;;;;17.92;14.60;;;;;;;29.75;15.03;102593.50;5095969;28;20044;-84
2022/03/22 11:03:18;;;;;;;17.95;13.68;;;;;;;30.28;14.75;102583.97;5126113;27;20047;-84
2022/03/22 11:05:52;;;;;;;14.45;13.02;;;;;;;30.67;14.34;102586.97;5107280;27;20048;-84
2022/03/22 11:08:24;;;;;;;15.18;13.85;;;;;;;31.22;14.48;102578.94;5010252;28;20038;-85
2022/03/22 11:10:53;;;;;;;15.38;13.88;;;;;;;31.54;13.61;102581.31;4978650;28;20104;-86
2022/03/22 11:13:20;;;;;;;18.15;13.20;;;;;;;31.41;13.52;102576.75;5063426;28;20104;-84
2022/03/22 11:15:49;;;;;;;15.50;14.02;;;;;;;31.22;13.58;102579.81;4993657;28;20076;-83
2022/03/22 11:18:19;;;;;;;15.27;13.65;;;;;;;31.23;13.76;102572.56;5004327;28;20043;-83
2022/03/22 11:20:57;;;;;;;15.27;13.77;;;;;;;31.45;13.05;102569.28;4996080;28;20066;-82
2022/03/22 11:23:26;;;;;;;14.00;12.60;;;;;;;31.57;13.08;102567.59;5006759;28;20054;-84
2022/03/22 11:25:53;;;;;;;14.80;13.27;;;;;;;31.54;13.42;102565.97;5002533;28;20196;-85
2022/03/22 11:28:23;;;;;;;14.65;13.27;;;;;;;31.51;13.23;102567.03;5005832;28;20039;-85
2022/03/22 11:30:53;;;;;;;13.95;12.60;;;;;;;31.49;13.00;102560.00;5078486;28;20113;-85
2022/03/22 11:36:20;;;;;;;13.02;11.73;;;;;;;31.74;12.58;102567.31;5052059;28;20077;-86
2022/03/22 11:38:52;;;;;;;16.10;12.88;;;;;;;32.25;12.86;102560.22;5061463;28;20137;-86
2022/03/22 11:44:35;;;;;;;14.40;13.13;;;;;;;33.08;11.62;102561.44;5008673;28;20399;-84
2022/03/22 11:47:15;;;;;;;14.60;13.18;;;;;;;33.06;12.42;102558.81;5024619;28;20055;-82
2022/03/22 11:50:02;;;;;;;13.05;11.85;;;;;;;33.30;11.71;102560.69;5000024;28;20224;-85
2022/03/22 11:52:35;;;;;;;15.43;12.82;;;;;;;33.47;11.61;102557.53;5020492;28;20118;-85
2022/03/22 11:55:13;;;;;;;14.38;12.93;;;;;;;33.19;11.06;102552.47;4993892;28;20046;-83
2022/03/22 11:57:55;;;;;;;15.10;13.40;;;;;;;32.84;11.57;102553.28;4975609;28;20042;-85
2022/03/22 12:00:46;;;;;;;14.30;12.15;;;;;;;32.93;11.69;102556.19;4988285;28;20064;-85